sensor_id;sensor_type;location;lat;lon;timestamp;P1;durP1;ratioP1;P2;durP2;ratioP2
61764;SDS011;50188;48.114;-1.388;2022-09-09T00:04:05;9.32;;;4.40;;
61764;SDS011;50188;48.114;-1.388;2022-09-09T00:06:45;19.75;;;5.28;;
61764;SDS011;50188;48.114;-1.388;2022-09-09T00:09:19;16.05;;;4.70;;
61764;SDS011;50188;48.114;-1.388;2022-09-09T00:11:48;18.85;;;6.60;;
61764;SDS011;50188;48.114;-1.388;2022-09-09T00:14:26;18.25;;;5.57;;
61764;SDS011;50188;48.114;-1.388;2022-09-09T00:17:04;19.13;;;6.85;;
61764;SDS011;50188;48.114;-1.388;2022-09-09T00:19:39;19.63;;;3.75;;
61764;SDS011;50188;48.114;-1.388;2022-09-09T00:22:16;10.30;;;4.50;;
61764;SDS011;50188;48.114;-1.388;2022-09-09T00:24:54;14.55;;;4.93;;
61764;SDS011;50188;48.114;-1.388;2022-09-09T00:27:41;14.82;;;4.50;;
61764;SDS011;50188;48.114;-1.388;2022-09-09T00:30:20;14.15;;;4.97;;
61764;SDS011;50188;48.114;-1.388;2022-09-09T00:32:50;16.00;;;4.65;;
61764;SDS011;50188;48.114;-1.388;2022-09-09T00:35:23;20.65;;;4.72;;
61764;SDS011;50188;48.114;-1.388;2022-09-09T00:37:53;13.38;;;5.07;;
61764;SDS011;50188;48.114;-1.388;2022-09-09T00:40:33;12.25;;;4.20;;
61764;SDS011;50188;48.114;-1.388;2022-09-09T00:43:12;15.98;;;3.42;;
61764;SDS011;50188;48.114;-1.388;2022-09-09T00:49:00;15.95;;;4.93;;
61764;SDS011;50188;48.114;-1.388;2022-09-09T00:55:04;15.65;;;4.18;;
61764;SDS011;50188;48.114;-1.388;2022-09-09T00:57:44;11.60;;;3.08;;
61764;SDS011;50188;48.114;-1.388;2022-09-09T01:00:28;13.27;;;4.18;;
61764;SDS011;50188;48.114;-1.388;2022-09-09T01:03:10;16.83;;;4.95;;
61764;SDS011;50188;48.114;-1.388;2022-09-09T01:06:02;14.13;;;4.47;;
61764;SDS011;50188;48.114;-1.388;2022-09-09T01:12:00;14.95;;;5.10;;
61764;SDS011;50188;48.114;-1.388;2022-09-09T01:14:51;9.68;;;3.63;;
61764;SDS011;50188;48.114;-1.388;2022-09-09T01:17:22;14.98;;;4.82;;
61764;SDS011;50188;48.114;-1.388;2022-09-09T01:20:12;10.93;;;3.50;;
61764;SDS011;50188;48.114;-1.388;2022-09-09T01:23:01;9.43;;;3.85;;
61764;SDS011;50188;48.114;-1.388;2022-09-09T01:28:44;13.73;;;5.45;;
61764;SDS011;50188;48.114;-1.388;2022-09-09T01:31:14;9.80;;;3.45;;
61764;SDS011;50188;48.114;-1.388;2022-09-09T01:33:43;12.93;;;4.70;;
61764;SDS011;50188;48.114;-1.388;2022-09-09T01:36:13;13.27;;;3.75;;
61764;SDS011;50188;48.114;-1.388;2022-09-09T01:39:00;6.38;;;2.72;;
61764;SDS011;50188;48.114;-1.388;2022-09-09T01:41:26;8.38;;;3.80;;
61764;SDS011;50188;48.114;-1.388;2022-09-09T01:43:53;12.80;;;4.82;;
61764;SDS011;50188;48.114;-1.388;2022-09-09T01:46:21;12.25;;;4.10;;
61764;SDS011;50188;48.114;-1.388;2022-09-09T01:48:48;23.70;;;5.93;;
61764;SDS011;50188;48.114;-1.388;2022-09-09T01:51:16;8.00;;;4.80;;
61764;SDS011;50188;48.114;-1.388;2022-09-09T01:53:42;11.50;;;3.38;;
61764;SDS011;50188;48.114;-1.388;2022-09-09T01:56:26;14.43;;;5.78;;
61764;SDS011;50188;48.114;-1.388;2022-09-09T01:59:07;13.98;;;3.97;;
61764;SDS011;50188;48.114;-1.388;2022-09-09T02:04:50;11.32;;;4.75;;
61764;SDS011;50188;48.114;-1.388;2022-09-09T02:10:17;17.63;;;5.50;;
61764;SDS011;50188;48.114;-1.388;2022-09-09T02:12:47;19.55;;;5.80;;
61764;SDS011;50188;48.114;-1.388;2022-09-09T02:15:22;12.27;;;5.55;;
61764;SDS011;50188;48.114;-1.388;2022-09-09T02:17:53;18.60;;;5.85;;
61764;SDS011;50188;48.114;-1.388;2022-09-09T02:20:23;16.48;;;5.20;;
61764;SDS011;50188;48.114;-1.388;2022-09-09T02:22:52;11.00;;;4.60;;
61764;SDS011;50188;48.114;-1.388;2022-09-09T02:25:19;17.63;;;5.10;;
61764;SDS011;50188;48.114;-1.388;2022-09-09T02:30:16;14.27;;;3.95;;
61764;SDS011;50188;48.114;-1.388;2022-09-09T02:32:43;12.90;;;4.90;;
61764;SDS011;50188;48.114;-1.388;2022-09-09T02:35:12;14.40;;;4.65;;
61764;SDS011;50188;48.114;-1.388;2022-09-09T02:37:41;12.50;;;5.28;;
61764;SDS011;50188;48.114;-1.388;2022-09-09T02:40:08;20.13;;;6.53;;
61764;SDS011;50188;48.114;-1.388;2022-09-09T02:42:39;17.35;;;5.95;;
61764;SDS011;50188;48.114;-1.388;2022-09-09T02:45:06;13.77;;;4.72;;
61764;SDS011;50188;48.114;-1.388;2022-09-09T02:47:34;10.73;;;4.80;;
61764;SDS011;50188;48.114;-1.388;2022-09-09T02:50:17;9.38;;;3.28;;
61764;SDS011;50188;48.114;-1.388;2022-09-09T02:52:56;10.20;;;3.15;;
61764;SDS011;50188;48.114;-1.388;2022-09-09T02:55:38;10.82;;;3.63;;
61764;SDS011;50188;48.114;-1.388;2022-09-09T02:58:08;10.45;;;3.17;;
61764;SDS011;50188;48.114;-1.388;2022-09-09T03:00:36;9.18;;;2.78;;
61764;SDS011;50188;48.114;-1.388;2022-09-09T03:03:03;9.15;;;2.42;;
61764;SDS011;50188;48.114;-1.388;2022-09-09T03:05:30;9.38;;;3.58;;
61764;SDS011;50188;48.114;-1.388;2022-09-09T03:07:55;10.35;;;2.97;;
61764;SDS011;50188;48.114;-1.388;2022-09-09T03:10:21;8.32;;;2.05;;
61764;SDS011;50188;48.114;-1.388;2022-09-09T03:12:47;7.13;;;3.15;;
61764;SDS011;50188;48.114;-1.388;2022-09-09T03:15:12;8.02;;;3.30;;
61764;SDS011;50188;48.114;-1.388;2022-09-09T03:17:39;10.07;;;3.72;;
61764;SDS011;50188;48.114;-1.388;2022-09-09T03:20:05;11.43;;;2.85;;
61764;SDS011;50188;48.114;-1.388;2022-09-09T03:22:32;12.23;;;3.13;;
61764;SDS011;50188;48.114;-1.388;2022-09-09T03:24:58;13.82;;;2.83;;
61764;SDS011;50188;48.114;-1.388;2022-09-09T03:27:24;6.47;;;2.60;;
61764;SDS011;50188;48.114;-1.388;2022-09-09T03:29:49;8.07;;;3.47;;
61764;SDS011;50188;48.114;-1.388;2022-09-09T03:32:16;10.82;;;3.05;;
61764;SDS011;50188;48.114;-1.388;2022-09-09T03:34:42;14.32;;;4.00;;
61764;SDS011;50188;48.114;-1.388;2022-09-09T03:37:08;9.20;;;3.10;;
61764;SDS011;50188;48.114;-1.388;2022-09-09T03:39:34;11.93;;;2.88;;
61764;SDS011;50188;48.114;-1.388;2022-09-09T03:41:59;14.13;;;3.05;;
61764;SDS011;50188;48.114;-1.388;2022-09-09T03:44:28;10.52;;;2.72;;
61764;SDS011;50188;48.114;-1.388;2022-09-09T03:46:53;10.55;;;2.47;;
61764;SDS011;50188;48.114;-1.388;2022-09-09T03:49:19;6.03;;;2.40;;
61764;SDS011;50188;48.114;-1.388;2022-09-09T03:51:45;9.23;;;3.03;;
61764;SDS011;50188;48.114;-1.388;2022-09-09T03:54:10;9.77;;;3.20;;
61764;SDS011;50188;48.114;-1.388;2022-09-09T03:56:36;10.80;;;3.83;;
61764;SDS011;50188;48.114;-1.388;2022-09-09T03:59:02;2.97;;;2.33;;
61764;SDS011;50188;48.114;-1.388;2022-09-09T04:01:28;6.45;;;2.80;;
61764;SDS011;50188;48.114;-1.388;2022-09-09T04:03:54;10.15;;;3.45;;
61764;SDS011;50188;48.114;-1.388;2022-09-09T04:06:23;7.22;;;2.45;;
61764;SDS011;50188;48.114;-1.388;2022-09-09T04:08:49;7.05;;;2.80;;
61764;SDS011;50188;48.114;-1.388;2022-09-09T04:11:17;9.98;;;3.50;;
61764;SDS011;50188;48.114;-1.388;2022-09-09T04:13:43;6.90;;;2.92;;
61764;SDS011;50188;48.114;-1.388;2022-09-09T04:16:10;10.00;;;2.95;;
61764;SDS011;50188;48.114;-1.388;2022-09-09T04:18:38;11.85;;;3.60;;
61764;SDS011;50188;48.114;-1.388;2022-09-09T04:21:04;12.82;;;4.38;;
61764;SDS011;50188;48.114;-1.388;2022-09-09T04:23:31;7.70;;;3.20;;
61764;SDS011;50188;48.114;-1.388;2022-09-09T04:25:59;17.55;;;5.07;;
61764;SDS011;50188;48.114;-1.388;2022-09-09T04:28:27;5.15;;;2.70;;
61764;SDS011;50188;48.114;-1.388;2022-09-09T04:30:54;9.67;;;3.27;;
61764;SDS011;50188;48.114;-1.388;2022-09-09T04:33:23;13.57;;;3.58;;
61764;SDS011;50188;48.114;-1.388;2022-09-09T04:35:51;9.10;;;2.90;;
61764;SDS011;50188;48.114;-1.388;2022-09-09T04:38:18;11.05;;;3.63;;
61764;SDS011;50188;48.114;-1.388;2022-09-09T04:40:48;8.00;;;2.85;;
61764;SDS011;50188;48.114;-1.388;2022-09-09T04:43:14;16.85;;;3.13;;
61764;SDS011;50188;48.114;-1.388;2022-09-09T04:45:41;9.05;;;2.97;;
61764;SDS011;50188;48.114;-1.388;2022-09-09T04:48:07;10.60;;;3.08;;
61764;SDS011;50188;48.114;-1.388;2022-09-09T04:50:34;11.45;;;3.13;;
61764;SDS011;50188;48.114;-1.388;2022-09-09T04:53:00;12.77;;;3.20;;
61764;SDS011;50188;48.114;-1.388;2022-09-09T04:55:27;15.88;;;4.15;;
61764;SDS011;50188;48.114;-1.388;2022-09-09T04:57:52;16.50;;;3.38;;
61764;SDS011;50188;48.114;-1.388;2022-09-09T05:00:18;16.10;;;4.30;;
61764;SDS011;50188;48.114;-1.388;2022-09-09T05:02:44;10.75;;;2.60;;
61764;SDS011;50188;48.114;-1.388;2022-09-09T05:05:10;7.65;;;2.88;;
61764;SDS011;50188;48.114;-1.388;2022-09-09T05:07:36;14.98;;;4.57;;
61764;SDS011;50188;48.114;-1.388;2022-09-09T05:10:02;11.32;;;3.25;;
61764;SDS011;50188;48.114;-1.388;2022-09-09T05:12:29;7.53;;;2.92;;
61764;SDS011;50188;48.114;-1.388;2022-09-09T05:14:55;10.50;;;2.85;;
61764;SDS011;50188;48.114;-1.388;2022-09-09T05:17:20;11.18;;;3.63;;
61764;SDS011;50188;48.114;-1.388;2022-09-09T05:19:46;17.77;;;3.53;;
61764;SDS011;50188;48.114;-1.388;2022-09-09T05:22:12;11.90;;;3.22;;
61764;SDS011;50188;48.114;-1.388;2022-09-09T05:24:37;11.90;;;4.07;;
61764;SDS011;50188;48.114;-1.388;2022-09-09T05:27:03;6.10;;;2.78;;
61764;SDS011;50188;48.114;-1.388;2022-09-09T05:29:31;14.55;;;3.78;;
61764;SDS011;50188;48.114;-1.388;2022-09-09T05:31:58;13.07;;;3.38;;
61764;SDS011;50188;48.114;-1.388;2022-09-09T05:34:24;9.60;;;2.97;;
61764;SDS011;50188;48.114;-1.388;2022-09-09T05:36:50;10.30;;;3.00;;
61764;SDS011;50188;48.114;-1.388;2022-09-09T05:39:17;6.30;;;3.50;;
61764;SDS011;50188;48.114;-1.388;2022-09-09T05:41:43;10.75;;;4.20;;
61764;SDS011;50188;48.114;-1.388;2022-09-09T05:44:08;12.00;;;2.67;;
61764;SDS011;50188;48.114;-1.388;2022-09-09T05:46:34;12.48;;;3.25;;
61764;SDS011;50188;48.114;-1.388;2022-09-09T05:49:00;9.88;;;3.40;;
61764;SDS011;50188;48.114;-1.388;2022-09-09T05:51:28;16.38;;;3.90;;
61764;SDS011;50188;48.114;-1.388;2022-09-09T05:53:57;4.80;;;2.63;;
61764;SDS011;50188;48.114;-1.388;2022-09-09T05:56:24;16.67;;;4.47;;
61764;SDS011;50188;48.114;-1.388;2022-09-09T05:58:51;13.10;;;3.28;;
61764;SDS011;50188;48.114;-1.388;2022-09-09T06:01:20;10.90;;;3.45;;
61764;SDS011;50188;48.114;-1.388;2022-09-09T06:06:15;13.55;;;3.38;;
61764;SDS011;50188;48.114;-1.388;2022-09-09T06:08:43;15.85;;;4.55;;
61764;SDS011;50188;48.114;-1.388;2022-09-09T06:11:10;9.13;;;3.78;;
61764;SDS011;50188;48.114;-1.388;2022-09-09T06:13:38;7.88;;;3.28;;
61764;SDS011;50188;48.114;-1.388;2022-09-09T06:16:08;17.17;;;4.32;;
61764;SDS011;50188;48.114;-1.388;2022-09-09T06:18:36;10.73;;;3.53;;
61764;SDS011;50188;48.114;-1.388;2022-09-09T06:21:03;10.70;;;3.53;;
61764;SDS011;50188;48.114;-1.388;2022-09-09T06:23:30;14.90;;;4.15;;
61764;SDS011;50188;48.114;-1.388;2022-09-09T06:26:07;11.73;;;3.80;;
61764;SDS011;50188;48.114;-1.388;2022-09-09T06:28:35;13.65;;;3.67;;
61764;SDS011;50188;48.114;-1.388;2022-09-09T06:31:09;7.60;;;2.55;;
61764;SDS011;50188;48.114;-1.388;2022-09-09T06:33:37;8.73;;;2.78;;
61764;SDS011;50188;48.114;-1.388;2022-09-09T06:36:06;7.93;;;2.80;;
61764;SDS011;50188;48.114;-1.388;2022-09-09T06:38:36;9.68;;;2.80;;
61764;SDS011;50188;48.114;-1.388;2022-09-09T06:41:02;13.35;;;4.25;;
61764;SDS011;50188;48.114;-1.388;2022-09-09T06:43:30;8.48;;;2.83;;
61764;SDS011;50188;48.114;-1.388;2022-09-09T06:45:57;13.13;;;3.33;;
61764;SDS011;50188;48.114;-1.388;2022-09-09T06:48:25;9.73;;;4.22;;
61764;SDS011;50188;48.114;-1.388;2022-09-09T06:50:59;6.85;;;3.15;;
61764;SDS011;50188;48.114;-1.388;2022-09-09T06:53:29;9.97;;;3.63;;
61764;SDS011;50188;48.114;-1.388;2022-09-09T06:55:58;4.38;;;2.10;;
61764;SDS011;50188;48.114;-1.388;2022-09-09T06:58:27;10.75;;;3.05;;
61764;SDS011;50188;48.114;-1.388;2022-09-09T07:01:01;10.20;;;2.47;;
61764;SDS011;50188;48.114;-1.388;2022-09-09T07:03:30;12.50;;;3.53;;
61764;SDS011;50188;48.114;-1.388;2022-09-09T07:05:56;16.90;;;4.53;;
61764;SDS011;50188;48.114;-1.388;2022-09-09T07:08:23;13.82;;;3.08;;
61764;SDS011;50188;48.114;-1.388;2022-09-09T07:10:49;5.38;;;2.30;;
61764;SDS011;50188;48.114;-1.388;2022-09-09T07:13:19;12.55;;;3.65;;
61764;SDS011;50188;48.114;-1.388;2022-09-09T07:15:52;17.63;;;4.00;;
61764;SDS011;50188;48.114;-1.388;2022-09-09T07:18:18;5.93;;;2.83;;
61764;SDS011;50188;48.114;-1.388;2022-09-09T07:20:54;8.05;;;2.65;;
61764;SDS011;50188;48.114;-1.388;2022-09-09T07:23:21;7.35;;;3.60;;
61764;SDS011;50188;48.114;-1.388;2022-09-09T07:25:47;8.13;;;2.75;;
61764;SDS011;50188;48.114;-1.388;2022-09-09T07:28:13;11.70;;;4.05;;
61764;SDS011;50188;48.114;-1.388;2022-09-09T07:30:39;10.00;;;2.85;;
61764;SDS011;50188;48.114;-1.388;2022-09-09T07:33:05;9.77;;;3.00;;
61764;SDS011;50188;48.114;-1.388;2022-09-09T07:35:31;9.48;;;2.40;;
61764;SDS011;50188;48.114;-1.388;2022-09-09T07:37:57;11.23;;;3.55;;
61764;SDS011;50188;48.114;-1.388;2022-09-09T07:40:23;16.02;;;4.00;;
61764;SDS011;50188;48.114;-1.388;2022-09-09T07:42:49;9.50;;;2.05;;
61764;SDS011;50188;48.114;-1.388;2022-09-09T07:45:15;8.15;;;3.08;;
61764;SDS011;50188;48.114;-1.388;2022-09-09T07:47:40;13.13;;;3.25;;
61764;SDS011;50188;48.114;-1.388;2022-09-09T07:50:08;9.05;;;3.05;;
61764;SDS011;50188;48.114;-1.388;2022-09-09T07:52:34;7.97;;;2.72;;
61764;SDS011;50188;48.114;-1.388;2022-09-09T07:55:00;15.07;;;3.45;;
61764;SDS011;50188;48.114;-1.388;2022-09-09T07:57:27;18.75;;;3.58;;
61764;SDS011;50188;48.114;-1.388;2022-09-09T07:59:55;12.37;;;2.87;;
61764;SDS011;50188;48.114;-1.388;2022-09-09T08:02:22;10.52;;;2.83;;
61764;SDS011;50188;48.114;-1.388;2022-09-09T08:04:48;5.70;;;2.50;;
61764;SDS011;50188;48.114;-1.388;2022-09-09T08:07:14;13.75;;;3.53;;
61764;SDS011;50188;48.114;-1.388;2022-09-09T08:09:41;11.43;;;3.55;;
61764;SDS011;50188;48.114;-1.388;2022-09-09T08:12:07;10.43;;;3.45;;
61764;SDS011;50188;48.114;-1.388;2022-09-09T08:14:33;10.55;;;3.25;;
61764;SDS011;50188;48.114;-1.388;2022-09-09T08:16:59;11.27;;;2.95;;
61764;SDS011;50188;48.114;-1.388;2022-09-09T08:19:25;8.98;;;3.10;;
61764;SDS011;50188;48.114;-1.388;2022-09-09T08:21:51;11.60;;;4.07;;
61764;SDS011;50188;48.114;-1.388;2022-09-09T08:24:17;11.60;;;3.20;;
61764;SDS011;50188;48.114;-1.388;2022-09-09T08:26:45;12.07;;;3.20;;
61764;SDS011;50188;48.114;-1.388;2022-09-09T08:31:40;9.00;;;3.97;;
61764;SDS011;50188;48.114;-1.388;2022-09-09T08:34:09;7.88;;;2.85;;
61764;SDS011;50188;48.114;-1.388;2022-09-09T08:36:38;10.68;;;3.65;;
61764;SDS011;50188;48.114;-1.388;2022-09-09T08:39:09;12.40;;;3.55;;
61764;SDS011;50188;48.114;-1.388;2022-09-09T08:50:44;8.18;;;2.60;;
61764;SDS011;50188;48.114;-1.388;2022-09-09T08:53:21;9.40;;;2.88;;
61764;SDS011;50188;48.114;-1.388;2022-09-09T08:55:50;6.35;;;2.70;;
61764;SDS011;50188;48.114;-1.388;2022-09-09T08:58:20;10.52;;;2.75;;
61764;SDS011;50188;48.114;-1.388;2022-09-09T09:07:16;6.53;;;2.42;;
61764;SDS011;50188;48.114;-1.388;2022-09-09T09:10:15;9.30;;;2.67;;
61764;SDS011;50188;48.114;-1.388;2022-09-09T09:12:55;6.22;;;1.92;;
61764;SDS011;50188;48.114;-1.388;2022-09-09T09:15:25;8.95;;;2.70;;
61764;SDS011;50188;48.114;-1.388;2022-09-09T09:17:55;5.20;;;2.08;;
61764;SDS011;50188;48.114;-1.388;2022-09-09T09:20:41;5.70;;;3.00;;
61764;SDS011;50188;48.114;-1.388;2022-09-09T09:23:17;8.73;;;2.75;;
61764;SDS011;50188;48.114;-1.388;2022-09-09T09:25:47;8.85;;;2.70;;
61764;SDS011;50188;48.114;-1.388;2022-09-09T09:30:49;8.88;;;3.63;;
61764;SDS011;50188;48.114;-1.388;2022-09-09T09:33:22;10.40;;;3.80;;
61764;SDS011;50188;48.114;-1.388;2022-09-09T09:35:57;6.90;;;2.78;;
61764;SDS011;50188;48.114;-1.388;2022-09-09T09:38:25;7.03;;;2.55;;
61764;SDS011;50188;48.114;-1.388;2022-09-09T09:40:53;4.28;;;1.95;;
61764;SDS011;50188;48.114;-1.388;2022-09-09T09:43:24;6.72;;;2.58;;
61764;SDS011;50188;48.114;-1.388;2022-09-09T09:45:53;7.78;;;2.80;;
61764;SDS011;50188;48.114;-1.388;2022-09-09T09:48:18;8.93;;;2.97;;
61764;SDS011;50188;48.114;-1.388;2022-09-09T09:50:48;8.18;;;3.72;;
61764;SDS011;50188;48.114;-1.388;2022-09-09T09:53:26;8.23;;;2.15;;
61764;SDS011;50188;48.114;-1.388;2022-09-09T09:55:58;7.10;;;2.97;;
61764;SDS011;50188;48.114;-1.388;2022-09-09T09:58:30;6.47;;;2.10;;
61764;SDS011;50188;48.114;-1.388;2022-09-09T10:00:58;9.70;;;2.97;;
61764;SDS011;50188;48.114;-1.388;2022-09-09T10:03:32;7.70;;;2.13;;
61764;SDS011;50188;48.114;-1.388;2022-09-09T10:06:02;6.93;;;2.58;;
61764;SDS011;50188;48.114;-1.388;2022-09-09T10:08:28;6.32;;;1.73;;
61764;SDS011;50188;48.114;-1.388;2022-09-09T10:11:06;8.45;;;2.10;;
61764;SDS011;50188;48.114;-1.388;2022-09-09T10:20:14;9.65;;;2.85;;
61764;SDS011;50188;48.114;-1.388;2022-09-09T10:22:45;7.80;;;2.72;;
61764;SDS011;50188;48.114;-1.388;2022-09-09T10:25:28;5.20;;;2.22;;
61764;SDS011;50188;48.114;-1.388;2022-09-09T10:28:10;10.63;;;3.53;;
61764;SDS011;50188;48.114;-1.388;2022-09-09T10:31:17;4.60;;;1.83;;
61764;SDS011;50188;48.114;-1.388;2022-09-09T10:33:56;4.60;;;1.85;;
61764;SDS011;50188;48.114;-1.388;2022-09-09T10:36:39;9.40;;;2.45;;
61764;SDS011;50188;48.114;-1.388;2022-09-09T10:39:26;9.07;;;2.78;;
61764;SDS011;50188;48.114;-1.388;2022-09-09T10:42:02;6.45;;;1.67;;
61764;SDS011;50188;48.114;-1.388;2022-09-09T10:44:36;5.45;;;1.77;;
61764;SDS011;50188;48.114;-1.388;2022-09-09T10:47:18;6.22;;;1.80;;
61764;SDS011;50188;48.114;-1.388;2022-09-09T10:50:11;11.80;;;2.15;;
61764;SDS011;50188;48.114;-1.388;2022-09-09T10:53:08;7.18;;;2.13;;
61764;SDS011;50188;48.114;-1.388;2022-09-09T10:56:01;6.15;;;2.63;;
61764;SDS011;50188;48.114;-1.388;2022-09-09T10:58:51;9.48;;;2.92;;
61764;SDS011;50188;48.114;-1.388;2022-09-09T11:01:36;7.82;;;2.22;;
61764;SDS011;50188;48.114;-1.388;2022-09-09T11:04:12;6.35;;;2.35;;
61764;SDS011;50188;48.114;-1.388;2022-09-09T11:06:57;14.32;;;3.25;;
61764;SDS011;50188;48.114;-1.388;2022-09-09T11:09:31;7.85;;;2.33;;
61764;SDS011;50188;48.114;-1.388;2022-09-09T11:12:03;6.85;;;2.15;;
61764;SDS011;50188;48.114;-1.388;2022-09-09T11:14:41;6.50;;;1.65;;
61764;SDS011;50188;48.114;-1.388;2022-09-09T11:17:13;4.75;;;1.60;;
61764;SDS011;50188;48.114;-1.388;2022-09-09T11:19:43;10.23;;;3.00;;
61764;SDS011;50188;48.114;-1.388;2022-09-09T11:22:27;8.70;;;1.85;;
61764;SDS011;50188;48.114;-1.388;2022-09-09T11:25:04;7.95;;;2.70;;
61764;SDS011;50188;48.114;-1.388;2022-09-09T11:33:58;4.72;;;1.60;;
61764;SDS011;50188;48.114;-1.388;2022-09-09T11:36:58;16.77;;;1.80;;
61764;SDS011;50188;48.114;-1.388;2022-09-09T11:39:46;7.82;;;3.13;;
61764;SDS011;50188;48.114;-1.388;2022-09-09T11:42:23;4.18;;;1.10;;
61764;SDS011;50188;48.114;-1.388;2022-09-09T11:44:49;17.48;;;2.58;;
61764;SDS011;50188;48.114;-1.388;2022-09-09T11:47:21;3.35;;;1.50;;
61764;SDS011;50188;48.114;-1.388;2022-09-09T11:52:36;5.53;;;2.05;;
61764;SDS011;50188;48.114;-1.388;2022-09-09T11:55:11;3.67;;;1.08;;
61764;SDS011;50188;48.114;-1.388;2022-09-09T11:57:57;5.43;;;1.10;;
61764;SDS011;50188;48.114;-1.388;2022-09-09T12:00:34;2.20;;;0.93;;
61764;SDS011;50188;48.114;-1.388;2022-09-09T12:03:08;7.80;;;2.22;;
61764;SDS011;50188;48.114;-1.388;2022-09-09T12:06:08;7.97;;;1.50;;
61764;SDS011;50188;48.114;-1.388;2022-09-09T12:08:57;7.88;;;1.77;;
61764;SDS011;50188;48.114;-1.388;2022-09-09T12:11:40;3.10;;;1.60;;
61764;SDS011;50188;48.114;-1.388;2022-09-09T12:14:18;6.75;;;1.58;;
61764;SDS011;50188;48.114;-1.388;2022-09-09T12:22:51;4.03;;;1.20;;
61764;SDS011;50188;48.114;-1.388;2022-09-09T12:31:46;4.78;;;1.77;;
61764;SDS011;50188;48.114;-1.388;2022-09-09T12:34:32;5.40;;;1.63;;
61764;SDS011;50188;48.114;-1.388;2022-09-09T12:37:14;7.15;;;1.90;;
61764;SDS011;50188;48.114;-1.388;2022-09-09T12:39:55;6.80;;;1.70;;
61764;SDS011;50188;48.114;-1.388;2022-09-09T12:42:23;6.65;;;2.10;;
61764;SDS011;50188;48.114;-1.388;2022-09-09T12:44:51;10.73;;;1.63;;
61764;SDS011;50188;48.114;-1.388;2022-09-09T12:47:17;9.27;;;1.88;;
61764;SDS011;50188;48.114;-1.388;2022-09-09T12:52:17;1.65;;;0.82;;
61764;SDS011;50188;48.114;-1.388;2022-09-09T12:54:55;1.63;;;1.13;;
61764;SDS011;50188;48.114;-1.388;2022-09-09T12:57:22;3.00;;;1.25;;
61764;SDS011;50188;48.114;-1.388;2022-09-09T12:59:50;2.00;;;1.30;;
61764;SDS011;50188;48.114;-1.388;2022-09-09T13:02:18;4.43;;;1.23;;
61764;SDS011;50188;48.114;-1.388;2022-09-09T13:04:46;3.17;;;1.50;;
61764;SDS011;50188;48.114;-1.388;2022-09-09T13:07:12;3.53;;;1.55;;
61764;SDS011;50188;48.114;-1.388;2022-09-09T13:09:41;3.78;;;1.80;;
61764;SDS011;50188;48.114;-1.388;2022-09-09T13:12:11;4.10;;;1.50;;
61764;SDS011;50188;48.114;-1.388;2022-09-09T13:14:39;4.10;;;1.73;;
61764;SDS011;50188;48.114;-1.388;2022-09-09T13:17:22;3.65;;;1.42;;
61764;SDS011;50188;48.114;-1.388;2022-09-09T13:19:50;7.95;;;2.00;;
61764;SDS011;50188;48.114;-1.388;2022-09-09T13:22:22;3.33;;;1.52;;
61764;SDS011;50188;48.114;-1.388;2022-09-09T13:25:02;4.80;;;2.13;;
61764;SDS011;50188;48.114;-1.388;2022-09-09T13:27:34;2.90;;;1.20;;
61764;SDS011;50188;48.114;-1.388;2022-09-09T13:30:22;3.70;;;1.58;;
61764;SDS011;50188;48.114;-1.388;2022-09-09T13:33:20;5.18;;;1.80;;
61764;SDS011;50188;48.114;-1.388;2022-09-09T13:35:55;4.13;;;1.00;;
61764;SDS011;50188;48.114;-1.388;2022-09-09T13:38:22;2.60;;;1.30;;
61764;SDS011;50188;48.114;-1.388;2022-09-09T13:40:54;5.45;;;1.58;;
61764;SDS011;50188;48.114;-1.388;2022-09-09T13:43:24;6.97;;;2.05;;
61764;SDS011;50188;48.114;-1.388;2022-09-09T13:45:58;3.90;;;1.08;;
61764;SDS011;50188;48.114;-1.388;2022-09-09T13:48:26;5.90;;;1.67;;
61764;SDS011;50188;48.114;-1.388;2022-09-09T13:50:59;7.15;;;1.60;;
61764;SDS011;50188;48.114;-1.388;2022-09-09T13:53:28;3.80;;;1.27;;
61764;SDS011;50188;48.114;-1.388;2022-09-09T13:55:53;7.65;;;1.65;;
61764;SDS011;50188;48.114;-1.388;2022-09-09T13:58:19;5.85;;;1.75;;
61764;SDS011;50188;48.114;-1.388;2022-09-09T14:00:46;8.23;;;2.03;;
61764;SDS011;50188;48.114;-1.388;2022-09-09T14:03:12;9.65;;;1.75;;
61764;SDS011;50188;48.114;-1.388;2022-09-09T14:05:38;5.28;;;1.42;;
61764;SDS011;50188;48.114;-1.388;2022-09-09T14:08:04;4.35;;;1.33;;
61764;SDS011;50188;48.114;-1.388;2022-09-09T14:10:31;3.25;;;1.25;;
61764;SDS011;50188;48.114;-1.388;2022-09-09T14:12:57;5.32;;;1.20;;
61764;SDS011;50188;48.114;-1.388;2022-09-09T14:15:23;5.75;;;1.58;;
61764;SDS011;50188;48.114;-1.388;2022-09-09T14:17:49;2.70;;;1.48;;
61764;SDS011;50188;48.114;-1.388;2022-09-09T14:20:14;2.00;;;0.90;;
61764;SDS011;50188;48.114;-1.388;2022-09-09T14:22:42;5.63;;;1.55;;
61764;SDS011;50188;48.114;-1.388;2022-09-09T14:25:09;3.80;;;1.02;;
61764;SDS011;50188;48.114;-1.388;2022-09-09T14:27:34;3.85;;;1.13;;
61764;SDS011;50188;48.114;-1.388;2022-09-09T14:30:00;2.72;;;1.52;;
61764;SDS011;50188;48.114;-1.388;2022-09-09T14:32:26;1.65;;;0.63;;
61764;SDS011;50188;48.114;-1.388;2022-09-09T14:34:52;3.28;;;1.20;;
61764;SDS011;50188;48.114;-1.388;2022-09-09T14:37:18;2.65;;;1.17;;
61764;SDS011;50188;48.114;-1.388;2022-09-09T14:39:44;1.38;;;0.55;;
61764;SDS011;50188;48.114;-1.388;2022-09-09T14:42:11;4.78;;;1.13;;
61764;SDS011;50188;48.114;-1.388;2022-09-09T14:44:37;2.45;;;0.98;;
61764;SDS011;50188;48.114;-1.388;2022-09-09T14:47:04;0.70;;;0.60;;
61764;SDS011;50188;48.114;-1.388;2022-09-09T14:49:30;1.77;;;0.60;;
61764;SDS011;50188;48.114;-1.388;2022-09-09T14:51:56;2.28;;;1.05;;
61764;SDS011;50188;48.114;-1.388;2022-09-09T14:54:22;3.15;;;0.90;;
61764;SDS011;50188;48.114;-1.388;2022-09-09T14:56:48;3.17;;;1.13;;
61764;SDS011;50188;48.114;-1.388;2022-09-09T14:59:13;6.90;;;1.33;;
61764;SDS011;50188;48.114;-1.388;2022-09-09T15:01:39;2.20;;;1.05;;
61764;SDS011;50188;48.114;-1.388;2022-09-09T15:04:06;4.90;;;1.58;;
61764;SDS011;50188;48.114;-1.388;2022-09-09T15:06:34;5.28;;;1.23;;
61764;SDS011;50188;48.114;-1.388;2022-09-09T15:09:03;2.35;;;1.25;;
61764;SDS011;50188;48.114;-1.388;2022-09-09T15:11:30;2.03;;;1.17;;
61764;SDS011;50188;48.114;-1.388;2022-09-09T15:14:02;3.97;;;1.00;;
61764;SDS011;50188;48.114;-1.388;2022-09-09T15:16:29;3.38;;;0.90;;
61764;SDS011;50188;48.114;-1.388;2022-09-09T15:18:55;3.83;;;1.20;;
61764;SDS011;50188;48.114;-1.388;2022-09-09T15:21:23;1.63;;;1.10;;
61764;SDS011;50188;48.114;-1.388;2022-09-09T15:23:50;4.28;;;0.90;;
61764;SDS011;50188;48.114;-1.388;2022-09-09T15:26:16;5.53;;;1.73;;
61764;SDS011;50188;48.114;-1.388;2022-09-09T15:28:42;2.80;;;0.93;;
61764;SDS011;50188;48.114;-1.388;2022-09-09T15:31:11;2.90;;;1.33;;
61764;SDS011;50188;48.114;-1.388;2022-09-09T15:33:48;3.95;;;0.95;;
61764;SDS011;50188;48.114;-1.388;2022-09-09T15:36:16;5.82;;;1.65;;
61764;SDS011;50188;48.114;-1.388;2022-09-09T15:38:43;3.35;;;1.40;;
61764;SDS011;50188;48.114;-1.388;2022-09-09T15:41:09;1.38;;;1.15;;
61764;SDS011;50188;48.114;-1.388;2022-09-09T15:43:36;3.35;;;1.33;;
61764;SDS011;50188;48.114;-1.388;2022-09-09T15:46:21;2.08;;;0.98;;
61764;SDS011;50188;48.114;-1.388;2022-09-09T15:48:52;6.45;;;1.98;;
61764;SDS011;50188;48.114;-1.388;2022-09-09T15:51:19;3.78;;;1.15;;
61764;SDS011;50188;48.114;-1.388;2022-09-09T15:53:45;3.33;;;1.08;;
61764;SDS011;50188;48.114;-1.388;2022-09-09T15:56:11;3.28;;;1.27;;
61764;SDS011;50188;48.114;-1.388;2022-09-09T15:58:37;5.68;;;1.10;;
61764;SDS011;50188;48.114;-1.388;2022-09-09T16:01:03;2.17;;;1.40;;
61764;SDS011;50188;48.114;-1.388;2022-09-09T16:03:37;3.67;;;0.98;;
61764;SDS011;50188;48.114;-1.388;2022-09-09T16:06:05;1.90;;;0.70;;
61764;SDS011;50188;48.114;-1.388;2022-09-09T16:08:32;6.40;;;1.67;;